Latest Coastal Weather Observations for Minlaton Airport

IDS60701

Issued at 1:01 pm CST Tuesday 4 August 2015 (issued every 10 minutes, with the page automatically refreshed every 10 minutes)

About coastal observations | Map of coastal stations | Coastal observations for SA | Marine services | Other Formats
Station Details ID: 022031 Name: MINLATON AERO Lat: -34.75 Lon: 137.53 Height: 32.0 m
Data from the previous 72 hours. | See also: Recent months at Minlaton Airport
Date/Time
CST
Temp

°C
Wind Pressure Rain
since 9am
mm
Weather Cloud Vis
km
Sea
Height
m
Swell
Dir
 
Speed
knots
Gust
knots
hPa Trend Height
m
Period
s
Dir
04/01:00pm 11.6 W 16 21 1026.4 - 0.6 - - - - - - -
04/12:45pm 11.8 W 15 23 1026.6 - 0.6 - - - - - - -
04/12:30pm 11.9 WNW 11 13 1026.9 - 0.6 - - - - - - -
04/12:00pm 11.6 NW 9 11 1027.4 - 0.6 Recent precip. - - - - - -
04/11:30am 11.2 WNW 8 13 1027.9 - 0.0 - - - - - - -
04/11:00am 11.7 NW 9 11 1028.0 - 0.0 - - - - - - -
04/10:30am 11.3 W 6 10 1028.1 - 0.0 - - - - - - -
04/10:00am 10.6 NW 4 5 1028.0 - 0.0 - - - - - - -
04/09:30am 9.6 NW 4 6 1028.2 - 0.0 - - - - - - -
04/09:00am 8.9 NNE 5 6 1028.3 - 0.4 Recent precip. - - - - - -
04/08:30am 7.3 NNE 5 6 1028.2 - 0.4 - - - - - - -
04/08:00am 5.9 NNE 5 6 1027.9 - 0.2 - - - - - - -
04/07:30am 5.0 NE 6 7 1027.7 - 0.2 - - - - - - -
04/07:00am 3.6 ESE 3 4 1027.7 - 0.2 - - - - - - -
04/06:30am 4.1 ESE 4 4 1027.5 - 0.2 - - - - - - -
04/06:00am 4.9 SE 5 7 1027.3 - 0.2 - - - - - - -
04/05:30am 5.5 NNE 5 6 1027.4 - 0.2 - - - - - - -
04/05:00am 5.0 NNE 6 6 1027.3 - 0.2 - - - - - - -
04/04:30am 4.8 N 6 6 1027.3 - 0.2 - - - - - - -
04/04:00am 3.8 CALM 0 0 1027.2 - 0.2 - - - - - - -
04/03:30am 3.3 CALM 0 0 1027.4 - 0.2 - - - - - - -
04/03:00am 4.0 NNE 3 4 1027.5 - 0.2 - - - - - - -
04/02:30am 4.5 N 3 4 1027.6 - 0.2 - - - - - - -
04/02:00am 5.0 E 1 3 1027.8 - 0.2 - - - - - - -
04/01:30am 5.1 CALM 0 3 1027.8 - 0.2 - - - - - - -
04/01:00am 5.8 CALM 0 0 1027.8 - 0.2 - - - - - - -
04/12:30am 6.3 CALM 0 0 1028.1 - 0.2 - - - - - - -
04/12:00am 5.3 CALM 0 0 1028.1 - 0.2 - - - - - - -
 
Date/Time
CST
Temp

°C
Wind Pressure Rain
since 9am
mm
Weather Cloud Vis
km
Sea
Height
m
Swell
Dir
 
Speed
knots
Gust
knots
hPa Trend Height
m
Period
s
Dir
03/11:30pm 6.2 CALM 0 0 1028.0 - 0.2 - - - - - - -
03/11:00pm 5.4 SSE 3 4 1027.9 - 0.2 - - - - - - -
03/10:30pm 4.6 SSE 3 4 1028.1 - 0.2 - - - - - - -
03/10:00pm 3.9 SSE 4 5 1028.2 - 0.2 - - - - - - -
03/09:30pm 4.1 SE 5 5 1028.2 - 0.2 - - - - - - -
03/09:00pm 5.3 SE 7 8 1028.1 - 0.2 - - - - - - -
03/08:30pm 6.6 SSE 7 8 1028.1 - 0.2 - - - - - - -
03/08:00pm 5.9 S 5 6 1028.0 - 0.2 - - - - - - -
03/07:30pm 6.2 S 6 7 1027.9 - 0.2 - - - - - - -
03/07:00pm 6.5 S 5 6 1027.8 - 0.2 - - - - - - -
03/06:30pm 7.5 S 6 7 1027.5 - 0.2 - - - - - - -
03/06:00pm 8.9 SSW 6 8 1027.2 - 0.2 - - - - - - -
03/05:30pm 9.6 SSW 11 14 1027.1 - 0.2 - - - - - - -
03/05:00pm 10.5 SSW 7 9 1026.9 - 0.2 - - - - - - -
03/04:30pm 10.9 SW 8 15 1026.8 - 0.2 - - - - - - -
03/04:00pm 11.4 SSW 8 11 1026.6 - 0.2 - - - - - - -
03/03:30pm 11.2 SW 8 11 1026.3 - 0.2 - - - - - - -
03/03:00pm 9.8 SW 17 25 1026.2 - 0.0 - - - - - - -
03/02:56pm 11.4 SW 13 25 1026.0 - 0.0 - - - - - - -
03/02:30pm 12.4 SW 10 14 1025.8 - 0.0 - - - - - - -
03/02:00pm 10.3 SW 15 19 1026.1 - 0.0 - - - - - - -
03/01:43pm 12.0 SW 15 25 1025.8 - 0.0 - - - - - - -
03/01:30pm 13.4 SW 11 15 1025.8 - 0.0 - - - - - - -
03/01:00pm 11.5 SSW 8 11 1026.2 - 0.0 - - - - - - -
03/12:30pm 12.3 SW 15 22 1026.3 - 0.0 - - - - - - -
03/12:00pm 13.3 SW 11 15 1026.3 - 0.0 - - - - - - -
03/11:30am 12.9 SW 12 16 1026.7 - 0.0 - - - - - - -
03/11:00am 11.0 SW 13 18 1026.8 - 0.0 - - - - - - -
03/10:30am 12.8 SSW 13 16 1026.6 - 0.0 - - - - - - -
03/10:00am 12.1 SSW 13 17 1026.4 - 0.0 - - - - - - -
03/09:30am 11.4 SW 13 18 1026.1 - 0.0 - - - - - - -
03/09:00am 10.7 SW 10 13 1025.9 - 0.2 - - - - - - -
03/08:30am 10.3 SW 13 19 1025.6 - 0.2 - - - - - - -
03/08:00am 9.8 SW 7 9 1025.2 - 0.2 - - - - - - -
03/07:30am 9.4 SW 8 9 1025.0 - 0.2 - - - - - - -
03/07:00am 9.7 SW 13 21 1024.5 - 0.2 - - - - - - -
03/06:30am 8.0 SW 8 10 1024.3 - 0.2 - - - - - - -
03/06:00am 9.2 SW 11 16 1023.9 - 0.2 - - - - - - -
03/05:30am 10.0 WSW 11 13 1023.6 - 0.2 - - - - - - -
03/05:00am 10.5 WSW 11 14 1023.4 - 0.2 - - - - - - -
03/04:30am 10.6 WSW 10 12 1023.4 - 0.2 - - - - - - -
03/04:00am 10.8 SW 13 17 1023.4 - 0.2 - - - - - - -
03/03:30am 10.7 SW 13 17 1023.6 - 0.2 - - - - - - -
03/03:00am 10.9 WSW 14 19 1023.4 - 0.2 - - - - - - -
03/02:30am 10.6 WSW 12 15 1023.3 - 0.2 - - - - - - -
03/02:00am 10.5 WSW 13 16 1023.3 - 0.2 - - - - - - -
03/01:42am 11.1 WSW 15 26 1023.3 - 0.0 - - - - - - -
03/01:30am 10.9 WSW 14 19 1023.2 - 0.0 - - - - - - -
03/01:00am 11.0 WSW 14 18 1023.1 - 0.0 - - - - - - -
03/12:30am 11.3 W 14 17 1023.1 - 0.0 - - - - - - -
03/12:00am 11.1 WSW 15 22 1023.1 - 0.0 - - - - - - -
 
Date/Time
CST
Temp

°C
Wind Pressure Rain
since 9am
mm
Weather Cloud Vis
km
Sea
Height
m
Swell
Dir
 
Speed
knots
Gust
knots
hPa Trend Height
m
Period
s
Dir
02/11:30pm 11.0 WSW 14 17 1023.1 - 0.0 - - - - - - -
02/11:00pm 12.1 W 16 22 1023.2 - 0.0 - - - - - - -
02/10:30pm 11.8 W 14 18 1023.3 - 0.0 - - - - - - -
02/10:00pm 11.4 W 13 18 1023.3 - 0.0 - - - - - - -
02/09:30pm 11.4 WSW 15 19 1023.2 - 0.0 - - - - - - -
02/09:00pm 12.0 W 16 21 1023.1 - 0.0 - - - - - - -
02/08:30pm 11.2 W 12 15 1022.9 - 0.0 - - - - - - -
02/08:00pm 11.3 W 13 18 1022.7 - 0.0 - - - - - - -
02/07:30pm 11.7 W 13 17 1022.6 - 0.0 - - - - - - -
02/07:00pm 11.8 W 15 18 1022.3 - 0.0 - - - - - - -
02/06:30pm 11.5 WSW 13 16 1022.1 - 0.0 - - - - - - -
02/06:00pm 11.8 W 18 23 1021.6 - 0.0 - - - - - - -
02/05:30pm 11.7 W 15 19 1021.4 - 0.0 - - - - - - -
02/05:00pm 12.1 WSW 17 23 1021.2 - 0.0 - - - - - - -
02/04:30pm 12.9 W 18 26 1021.0 - 0.0 - - - - - - -
02/04:00pm 13.5 W 19 23 1020.8 - 0.0 - - - - - - -
02/03:30pm 13.9 W 17 22 1020.7 - 0.0 - - - - - - -
02/03:00pm 13.3 W 18 22 1020.5 - 0.0 - - - - - - -
02/02:30pm 12.8 W 21 29 1020.3 - 0.0 - - - - - - -
02/02:23pm 13.6 W 19 29 1020.3 - 0.0 - - - - - - -
02/02:00pm 14.3 W 19 24 1020.1 - 0.0 - - - - - - -
02/01:30pm 13.0 W 19 23 1020.3 - 0.0 - - - - - - -
02/01:00pm 14.0 W 19 24 1020.5 - 0.0 - - - - - - -
02/12:30pm 13.8 WSW 21 27 1020.7 - 0.0 - - - - - - -
02/12:00pm 13.5 W 20 24 1020.9 - 0.0 - - - - - - -
02/11:30am 13.3 W 15 19 1021.1 - 0.0 - - - - - - -
02/11:00am 11.4 W 16 23 1021.2 - 0.0 - - - - - - -
02/10:30am 12.4 W 18 22 1021.2 - 0.0 - - - - - - -
02/10:00am 10.7 WSW 12 15 1021.2 - 0.0 - - - - - - -
02/09:30am 11.9 W 15 21 1020.7 - 0.0 - - - - - - -
02/09:00am 11.2 WSW 14 19 1020.6 - 4.0 - - - - - - -
02/08:30am 10.1 W 10 13 1020.3 - 4.0 - - - - - - -
02/08:00am 8.4 WSW 5 7 1020.1 - 4.0 - - - - - - -
02/07:30am 7.3 W 5 7 1019.9 - 4.0 - - - - - - -
02/07:00am 7.7 WSW 5 6 1019.7 - 4.0 - - - - - - -
02/06:30am 7.9 SSW 6 7 1019.5 - 4.0 - - - - - - -
02/06:00am 7.6 WSW 6 7 1019.2 - 4.0 - - - - - - -
02/05:30am 6.5 SW 8 11 1018.9 - 4.0 - - - - - - -
02/05:00am 7.3 WSW 4 6 1018.7 - 4.0 - - - - - - -
02/04:30am 7.7 N 3 4 1018.6 - 4.0 - - - - - - -
02/04:00am 7.7 NW 2 4 1018.6 - 4.0 - - - - - - -
02/03:30am 7.5 NW 3 5 1018.6 - 4.0 - - - - - - -
02/03:00am 7.2 N 4 5 1018.8 - 4.0 Recent precip. - - - - - -
02/02:30am 6.9 N 6 6 1018.9 - 3.8 - - - - - - -
02/02:00am 7.4 N 6 7 1019.0 - 3.8 - - - - - - -
02/01:30am 7.2 N 6 7 1019.2 - 3.8 - - - - - - -
02/01:00am 7.4 N 4 5 1019.3 - 3.8 - - - - - - -
02/12:30am 7.2 N 5 5 1019.5 - 3.8 - - - - - - -
02/12:00am 7.5 NNE 3 4 1019.3 - 3.8 - - - - - - -
 
Date/Time
CST
Temp

°C
Wind Pressure Rain
since 9am
mm
Weather Cloud Vis
km
Sea
Height
m
Swell
Dir
 
Speed
knots
Gust
knots
hPa Trend Height
m
Period
s
Dir
01/11:30pm 7.6 N 4 5 1019.4 - 3.8 - - - - - - -
01/11:00pm 7.9 ENE 4 5 1019.2 - 3.8 - - - - - - -
01/10:30pm 8.0 SE 3 5 1019.6 - 3.8 - - - - - - -
01/10:00pm 8.1 S 3 5 1019.5 - 3.8 - - - - - - -
01/09:30pm 8.0 CALM 0 0 1019.1 - 3.8 - - - - - - -
01/09:00pm 8.1 W 5 5 1019.0 - 3.8 Recent precip. - - - - - -
01/08:30pm 8.1 NE 5 6 1018.4 - 3.8 - - - - - - -
01/08:00pm 8.2 ENE 3 8 1018.3 - 3.6 - - - - - - -
01/07:30pm 8.6 NE 5 6 1017.8 - 2.6 - - - - - - -
01/07:00pm 8.8 ENE 6 7 1017.9 - 2.0 - - - - - - -
01/06:30pm 8.9 E 6 8 1017.6 - 1.6 - - - - - - -
01/06:00pm 9.1 SSW 5 5 1017.6 - 1.2 - - - - - - -
01/05:30pm 9.6 S 5 6 1016.9 - 1.2 - - - - - - -
01/05:00pm 9.7 SE 4 5 1016.6 - 1.2 - - - - - - -
01/04:30pm 10.0 SE 6 8 1016.5 - 1.2 - - - - - - -
01/04:00pm 10.3 S 10 13 1016.7 - 1.2 - - - - - - -
01/03:30pm 10.8 S 9 11 1016.6 - 1.2 - - - - - - -
01/03:00pm 10.7 SSE 6 8 1016.3 - 1.2 - - - - - - -
01/02:30pm 10.8 E 11 16 1015.5 - 1.2 - - - - - - -
01/02:00pm 11.0 E 7 9 1016.4 - 1.2 - - - - - - -
01/01:30pm 10.5 ESE 11 14 1015.4 - 1.2 - - - - - - -

Other Formats:

Comma delimited format used in spreadsheet applications
http://www.bom.gov.au/fwo/IDS60701/IDS60701.95659.axf

JavaScript Object Notation format (JSON) in row-major order
http://www.bom.gov.au/fwo/IDS60701/IDS60701.95659.json